Time;durP1;ratioP1;P1;durP2;ratioP2;P2;SDS_P1;SDS_P2;PMS_P1;PMS_P2;Temp;Humidity;BMP_temperature;BMP_pressure;BME280_temperature;BME280_humidity;BME280_pressure;Samples;Min_cycle;Max_cycle;Signal;HPM_P1;HPM_P2
2023/05/24 00:00:52;;;;;;;;;;;16.60;40.60;;;15.54;42.25;101392.50;12276003;19;19941;-88
2023/05/24 00:04:54;;;;;;;;;;;16.50;40.60;;;15.45;42.42;101383.41;12273741;19;19926;-88
2023/05/24 00:08:55;;;;;;;;;;;16.50;40.50;;;15.48;42.27;101385.84;12274928;19;19911;-88
2023/05/24 00:12:57;;;;;;;;;;;16.50;40.60;;;15.46;42.28;101392.16;12270447;19;19978;-88
2023/05/24 00:16:59;;;;;;;;;;;16.50;40.50;;;15.21;42.33;101345.53;12272178;19;20342;-88
2023/05/24 00:21:01;;;;;;;;;;;16.50;40.50;;;15.21;42.38;101362.16;12272093;19;19978;-88
2023/05/24 00:25:03;;;;;;;;;;;16.50;40.50;;;15.20;42.36;101375.41;12276763;19;20349;-87
2023/05/24 00:29:05;;;;;;;;;;;16.40;40.50;;;15.37;42.30;101403.28;12276552;19;19949;-88
2023/05/24 00:33:06;;;;;;;;;;;16.40;40.50;;;15.34;42.37;101403.47;12273207;19;19929;-88
2023/05/24 00:37:08;;;;;;;;;;;16.40;40.50;;;15.36;42.39;101406.84;12270546;19;19974;-88
2023/05/24 00:41:10;;;;;;;;;;;16.40;40.50;;;15.21;42.37;101391.09;12271548;19;19930;-89
2023/05/24 00:45:11;;;;;;;;;;;16.30;40.40;;;15.08;42.26;101373.56;12272091;19;19925;-89
2023/05/24 00:49:13;;;;;;;;;;;16.30;40.40;;;15.23;42.20;101412.06;12273791;19;19915;-89
2023/05/24 00:53:14;;;;;;;;;;;16.30;40.40;;;15.15;42.37;101407.28;12273114;19;19918;-89
2023/05/24 00:57:17;;;;;;;;;;;16.20;40.40;;;15.13;42.43;101397.81;12259039;19;20270;-89
2023/05/24 01:01:19;;;;;;;;;;;16.20;40.50;;;15.11;42.25;101408.41;12255928;19;20333;-89
2023/05/24 01:05:22;;;;;;;;;;;16.20;40.40;;;15.12;42.36;101406.63;12258509;19;20298;-89
2023/05/24 01:09:36;;;;;;;;;;;16.20;40.40;;;15.09;42.34;101412.06;12261908;19;19907;-89
2023/05/24 01:14:02;;;;;;;;;;;16.10;40.60;;;15.05;42.44;101412.28;12259552;19;19914;-89
2023/05/24 01:18:10;;;;;;;;;;;16.10;40.50;;;14.97;42.36;101406.66;12262109;19;19915;-89
2023/05/24 01:22:29;;;;;;;;;;;16.10;40.40;;;15.04;42.52;101417.63;12260972;19;20318;-89
2023/05/24 01:26:53;;;;;;;;;;;16.10;40.40;;;14.99;42.33;101412.66;12258425;19;19929;-89
2023/05/24 01:30:55;;;;;;;;;;;16.00;40.30;;;14.67;42.16;101375.22;12256904;19;20250;-89
2023/05/24 01:34:58;;;;;;;;;;;16.00;40.30;;;14.80;42.37;101394.56;12258737;19;19919;-89
2023/05/24 01:38:59;;;;;;;;;;;16.00;40.30;;;14.66;42.30;101381.41;12258871;19;20293;-89
2023/05/24 01:43:17;;;;;;;;;;;16.00;40.30;;;14.86;42.31;101434.56;12258467;19;20338;-89
2023/05/24 01:47:57;;;;;;;;;;;15.90;40.30;;;14.85;42.46;101438.13;12256056;19;19919;-89
2023/05/24 01:52:04;;;;;;;;;;;15.90;40.30;;;14.73;42.30;101421.34;12255317;19;19958;-89
2023/05/24 01:56:06;;;;;;;;;;;15.80;40.20;;;14.81;42.37;101437.47;12254977;19;20334;-90
2023/05/24 02:00:09;;;;;;;;;;;15.80;40.20;;;14.41;42.40;101386.47;12257168;19;19910;-89
2023/05/24 02:04:17;;;;;;;;;;;15.80;40.20;;;14.71;42.44;101439.81;12258301;19;19915;-89
2023/05/24 02:08:20;;;;;;;;;;;15.70;40.30;;;14.66;42.31;101435.78;12258342;19;19926;-89
2023/05/24 02:12:21;;;;;;;;;;;15.70;40.30;;;14.56;42.37;101425.00;12259174;19;19932;-89
2023/05/24 02:16:25;;;;;;;;;;;15.70;40.30;;;14.53;42.29;101418.16;12254819;19;19910;-89
2023/05/24 02:20:29;;;;;;;;;;;15.70;40.30;;;14.55;42.40;101423.28;12255230;19;19927;-89
2023/05/24 02:24:31;;;;;;;;;;;15.60;40.30;;;14.27;42.30;101376.78;12255235;19;19918;-89
2023/05/24 02:28:33;;;;;;;;;;;15.60;40.40;;;14.35;42.44;101399.03;12257628;19;19907;-89
2023/05/24 02:32:35;;;;;;;;;;;15.50;40.30;;;14.39;42.44;101412.81;12252347;19;19929;-88
2023/05/24 02:36:36;;;;;;;;;;;15.40;40.40;;;14.05;42.37;101367.56;12251153;19;20338;-89
2023/05/24 02:40:38;;;;;;;;;;;15.40;40.40;;;14.31;42.45;101407.19;12255295;19;19922;-89
2023/05/24 02:44:41;;;;;;;;;;;15.40;40.40;;;14.34;42.45;101428.88;12250901;19;19911;-89
2023/05/24 02:48:43;;;;;;;;;;;15.40;40.50;;;14.35;42.50;101437.59;12253736;19;19978;-89
2023/05/24 02:52:44;;;;;;;;;;;15.40;40.60;;;14.30;42.42;101429.16;12251948;19;20477;-89
2023/05/24 02:56:46;;;;;;;;;;;15.30;40.60;;;14.31;42.44;101433.44;12251916;19;20235;-90
2023/05/24 03:00:51;;;;;;;;;;;15.30;40.60;;;14.20;42.40;101409.59;12248795;19;20249;-89
2023/05/24 03:04:54;;;;;;;;;;;15.40;40.80;;;14.19;42.46;101407.94;12246010;19;19922;-89
2023/05/24 03:08:57;;;;;;;;;;;15.30;40.70;;;14.10;42.61;101397.03;12254401;19;19910;-89
2023/05/24 03:12:59;;;;;;;;;;;15.40;40.80;;;14.35;42.50;101430.56;12253059;19;20367;-89
2023/05/24 03:17:02;;;;;;;;;;;15.40;40.80;;;14.32;42.67;101424.66;12251036;19;19911;-89
2023/05/24 03:21:03;;;;;;;;;;;15.40;40.90;;;14.04;42.59;101381.66;12249804;19;19933;-89
2023/05/24 03:25:07;;;;;;;;;;;15.40;40.80;;;14.33;42.55;101431.59;12251826;19;19919;-89
2023/05/24 03:29:09;;;;;;;;;;;15.40;40.80;;;14.35;42.59;101440.22;12254127;19;19918;-89
2023/05/24 03:33:15;;;;;;;;;;;15.40;40.80;;;14.31;42.72;101426.44;12251696;19;19950;-89
2023/05/24 03:37:17;;;;;;;;;;;15.40;40.90;;;14.25;42.63;101421.53;12246602;19;20291;-89
2023/05/24 03:41:21;;;;;;;;;;;15.40;40.90;;;14.07;42.65;101397.22;12250800;19;19915;-88
2023/05/24 03:45:22;;;;;;;;;;;15.40;40.90;;;14.25;42.70;101436.44;12251347;19;19940;-89
2023/05/24 03:49:24;;;;;;;;;;;15.40;40.90;;;14.24;42.60;101442.66;12252880;19;19915;-89
2023/05/24 03:53:26;;;;;;;;;;;15.30;41.00;;;14.15;42.71;101444.06;12250070;19;20284;-88
2023/05/24 03:57:28;;;;;;;;;;;15.30;41.00;;;14.11;42.75;101432.84;12252210;19;20392;-89
2023/05/24 04:01:30;;;;;;;;;;;15.30;41.00;;;14.21;42.72;101453.34;12251381;19;20401;-89
2023/05/24 04:05:32;;;;;;;;;;;15.30;41.00;;;14.21;42.79;101453.34;12250673;19;19923;-89
2023/05/24 04:09:34;;;;;;;;;;;15.30;41.00;;;14.12;42.81;101447.69;12252736;19;19915;-88
2023/05/24 04:13:36;;;;;;;;;;;15.30;41.10;;;14.11;42.76;101440.75;12252494;19;19919;-89
2023/05/24 04:17:38;;;;;;;;;;;15.30;41.10;;;14.19;42.86;101456.06;12245856;19;20758;-88
2023/05/24 04:21:39;;;;;;;;;;;15.30;41.20;;;13.77;42.88;101388.50;12247218;19;19926;-88
2023/05/24 04:25:41;;;;;;;;;;;15.30;41.30;;;14.16;42.81;101446.56;12244190;19;19911;-88
2023/05/24 04:29:44;;;;;;;;;;;15.40;41.20;;;14.26;42.90;101462.66;12247665;19;19931;-89
2023/05/24 04:33:46;;;;;;;;;;;15.30;41.20;;;14.06;42.97;101436.69;12249169;19;19923;-89
2023/05/24 04:37:49;;;;;;;;;;;15.40;41.20;;;14.17;43.00;101464.00;12256296;19;19915;-89
2023/05/24 04:41:54;;;;;;;;;;;15.40;41.30;;;14.25;42.93;101478.50;12253394;19;19921;-89
2023/05/24 04:45:55;;;;;;;;;;;15.30;41.30;;;14.20;42.99;101477.91;12258019;19;19923;-89
2023/05/24 04:49:56;;;;;;;;;;;15.40;41.30;;;14.21;43.02;101477.84;12257909;19;19924;-88
2023/05/24 04:53:59;;;;;;;;;;;15.40;41.20;;;14.28;43.00;101491.44;12255452;19;19932;-89
2023/05/24 04:58:01;;;;;;;;;;;15.40;41.30;;;14.30;42.92;101497.47;12251002;19;20006;-88
2023/05/24 05:02:02;;;;;;;;;;;15.40;41.70;;;14.36;43.05;101507.59;12255592;19;19911;-88
2023/05/24 05:06:04;;;;;;;;;;;15.40;41.30;;;14.35;43.03;101508.56;12252301;19;19919;-88
2023/05/24 05:10:07;;;;;;;;;;;15.50;41.30;;;14.27;42.95;101492.38;12255733;19;19911;-88
2023/05/24 05:14:09;;;;;;;;;;;15.50;41.30;;;14.35;43.09;101509.38;12255525;19;19933;-88
2023/05/24 05:18:10;;;;;;;;;;;15.50;41.30;;;14.27;43.13;101495.84;12252961;19;20346;-88
2023/05/24 05:22:12;;;;;;;;;;;15.50;41.30;;;14.38;43.05;101513.63;12256061;19;19919;-88
2023/05/24 05:26:13;;;;;;;;;;;15.50;41.20;;;14.30;43.12;101510.59;12249534;19;19940;-88
2023/05/24 05:30:14;;;;;;;;;;;15.50;41.20;;;14.25;43.16;101505.59;12251782;19;19943;-87
2023/05/24 05:34:16;;;;;;;;;;;15.50;41.20;;;14.37;43.16;101531.19;12252628;19;20278;-88
2023/05/24 05:38:17;;;;;;;;;;;15.50;41.20;;;14.32;43.16;101519.25;12253260;19;19918;-87
2023/05/24 05:42:18;;;;;;;;;;;15.50;41.30;;;14.47;43.24;101539.34;12250464;19;20330;-89
2023/05/24 05:46:21;;;;;;;;;;;15.60;41.40;;;14.49;43.26;101539.28;12251260;19;19925;-88
2023/05/24 05:50:22;;;;;;;;;;;15.60;41.30;;;14.48;43.22;101532.34;12254423;19;20302;-90
2023/05/24 05:54:24;;;;;;;;;;;15.70;41.30;;;14.55;43.23;101547.66;12248989;19;19911;-88
2023/05/24 05:58:25;;;;;;;;;;;15.70;41.30;;;14.32;43.31;101499.06;12252128;19;19948;-88
2023/05/24 06:02:27;;;;;;;;;;;15.70;41.30;;;14.56;43.24;101530.13;12252358;19;20275;-89
2023/05/24 06:06:28;;;;;;;;;;;15.70;41.40;;;14.62;43.16;101536.81;12248843;19;19914;-89
2023/05/24 06:10:29;;;;;;;;;;;15.80;41.70;;;14.72;43.28;101556.38;12251774;19;19922;-88
2023/05/24 06:14:31;;;;;;;;;;;15.80;41.30;;;14.69;43.17;101551.25;12250634;19;19926;-89
2023/05/24 06:18:33;;;;;;;;;;;15.90;41.70;;;14.55;43.14;101537.16;12250662;19;19923;-89
2023/05/24 06:22:35;;;;;;;;;;;15.90;41.10;;;14.76;43.34;101576.25;12251902;19;20338;-88
2023/05/24 06:26:36;;;;;;;;;;;15.90;41.20;;;14.76;43.29;101571.84;12249580;19;19918;-89
2023/05/24 06:30:38;;;;;;;;;;;15.90;41.30;;;14.69;43.28;101549.50;12251359;19;20338;-89
2023/05/24 06:34:40;;;;;;;;;;;16.00;41.30;;;14.77;43.28;101568.31;12249858;19;20394;-91
2023/05/24 06:38:42;;;;;;;;;;;16.00;41.20;;;14.59;43.30;101537.84;12249966;19;19907;-88
2023/05/24 06:42:43;;;;;;;;;;;16.00;41.10;;;14.81;43.32;101579.47;12252840;19;20275;-90
2023/05/24 06:46:45;;;;;;;;;;;16.00;41.20;;;14.75;43.37;101570.16;12246642;19;19918;-90
2023/05/24 06:50:46;;;;;;;;;;;16.00;41.10;;;14.87;43.43;101587.00;12252311;19;19917;-89
2023/05/24 06:54:49;;;;;;;;;;;16.00;41.10;;;14.92;43.33;101592.81;12246779;19;19943;-90
2023/05/24 06:58:50;;;;;;;;;;;16.10;41.20;;;14.90;43.40;101586.81;12248916;19;19923;-89
2023/05/24 07:02:52;;;;;;;;;;;16.10;41.20;;;14.86;43.39;101579.22;12244575;19;19915;-89
2023/05/24 07:06:53;;;;;;;;;;;16.10;41.10;;;14.93;43.32;101598.94;12244504;19;19974;-89
2023/05/24 07:10:55;;;;;;;;;;;16.20;41.20;;;15.08;43.49;101608.53;12247448;19;19929;-90
2023/05/24 07:14:57;;;;;;;;;;;16.20;41.40;;;15.00;43.41;101585.31;12248159;19;19911;-88
2023/05/24 07:18:58;;;;;;;;;;;16.30;41.20;;;15.00;43.43;101580.06;12246254;19;19933;-89
2023/05/24 07:23:00;;;;;;;;;;;16.30;41.20;;;15.27;43.45;101618.81;12250108;19;19975;-89
2023/05/24 07:27:01;;;;;;;;;;;16.40;41.30;;;15.03;43.35;101576.41;12239026;19;19922;-89
2023/05/24 07:31:03;;;;;;;;;;;16.40;41.50;;;15.18;43.34;101590.44;12245596;19;19923;-89
2023/05/24 07:35:05;;;;;;;;;;;16.50;41.30;;;15.37;43.41;101609.41;12243198;19;19915;-90
2023/05/24 07:39:09;;;;;;;;;;;16.60;41.30;;;15.45;43.30;101617.69;12244472;19;19919;-90
2023/05/24 07:43:10;;;;;;;;;;;16.70;41.30;;;15.51;43.42;101626.16;12246151;19;20639;-89
2023/05/24 07:47:12;;;;;;;;;;;16.80;41.20;;;15.57;43.24;101637.13;12241617;19;20803;-89
2023/05/24 07:51:14;;;;;;;;;;;16.80;41.10;;;15.60;43.37;101642.22;12244407;19;19940;-88
2023/05/24 07:55:16;;;;;;;;;;;16.80;41.10;;;15.60;43.58;101630.84;12245049;19;19915;-89
2023/05/24 07:59:17;;;;;;;;;;;16.80;41.10;;;15.67;43.54;101642.69;12247221;19;20393;-88
2023/05/24 08:03:19;;;;;;;;;;;16.90;41.10;;;15.73;43.33;101642.34;12245934;19;19918;-89
2023/05/24 08:07:21;;;;;;;;;;;16.90;41.10;;;15.63;43.33;101620.09;12251423;19;19928;-89
2023/05/24 08:11:22;;;;;;;;;;;17.00;41.10;;;15.62;43.44;101619.28;12257914;19;19960;-89
2023/05/24 08:15:24;;;;;;;;;;;17.00;41.10;;;15.80;43.46;101648.09;12254891;19;19927;-88
2023/05/24 08:19:26;;;;;;;;;;;17.00;41.00;;;15.80;43.27;101646.28;12255735;19;19923;-89
2023/05/24 08:23:30;;;;;;;;;;;17.00;41.00;;;15.66;43.19;101623.41;12255850;19;19923;-90
2023/05/24 08:27:32;;;;;;;;;;;17.10;41.00;;;15.74;43.24;101627.38;12258647;19;19928;-89
2023/05/24 08:31:33;;;;;;;;;;;17.10;41.10;;;15.90;43.21;101655.31;12260045;19;20374;-89
2023/05/24 08:35:35;;;;;;;;;;;17.10;40.90;;;15.80;43.51;101643.66;12254274;19;19941;-88
2023/05/24 08:39:36;;;;;;;;;;;17.10;40.90;;;15.98;43.37;101673.25;12257558;19;20283;-88
2023/05/24 08:43:38;;;;;;;;;;;17.10;40.90;;;15.89;43.21;101652.75;12255588;19;19923;-88
2023/05/24 08:47:39;;;;;;;;;;;17.20;40.90;;;15.90;43.47;101649.19;12257664;19;19944;-88
2023/05/24 08:51:43;;;;;;;;;;;17.20;40.90;;;15.93;43.21;101651.59;12258242;19;19930;-89
2023/05/24 08:55:45;;;;;;;;;;;17.30;40.90;;;15.96;43.29;101654.09;12254134;19;19986;-88
2023/05/24 08:59:46;;;;;;;;;;;17.30;40.90;;;16.12;43.16;101675.88;12256738;19;20271;-89
2023/05/24 09:03:49;;;;;;;;;;;17.30;40.90;;;16.10;43.32;101667.22;12258018;19;19923;-88
2023/05/24 09:07:53;;;;;;;;;;;17.30;40.80;;;16.01;43.49;101656.41;12259566;19;19929;-89
2023/05/24 09:11:59;;;;;;;;;;;17.40;40.90;;;16.06;43.08;101663.06;12256441;19;19919;-89
2023/05/24 09:16:01;;;;;;;;;;;17.40;40.90;;;16.24;43.31;101687.41;12251656;19;19925;-88
2023/05/24 09:20:05;;;;;;;;;;;17.40;40.80;;;16.26;43.16;101692.59;12249523;19;19944;-89
2023/05/24 09:24:09;;;;;;;;;;;17.50;40.80;;;16.27;43.48;101695.13;12254219;19;19915;-88
2023/05/24 09:28:16;;;;;;;;;;;17.50;40.80;;;16.13;43.28;101667.03;12254168;19;19923;-89
2023/05/24 09:32:22;;;;;;;;;;;17.50;40.80;;;16.09;43.04;101654.13;12257105;19;19922;-87
2023/05/24 09:36:23;;;;;;;;;;;17.50;40.80;;;16.30;43.25;101689.66;12253810;19;19915;-89
2023/05/24 09:40:25;;;;;;;;;;;17.50;40.80;;;16.27;43.41;101681.94;12252275;19;19911;-88
2023/05/24 09:44:27;;;;;;;;;;;17.50;40.80;;;16.09;43.32;101643.59;12255907;19;19911;-88
2023/05/24 09:48:28;;;;;;;;;;;17.60;40.80;;;16.44;43.14;101701.94;12257088;19;19927;-88
2023/05/24 09:52:30;;;;;;;;;;;17.60;40.80;;;16.44;43.14;101690.56;12254216;19;19942;-88
2023/05/24 09:56:34;;;;;;;;;;;17.60;40.70;;;16.50;43.08;101705.97;12250725;19;19926;-88
2023/05/24 10:00:40;;;;;;;;;;;17.60;40.70;;;16.36;43.11;101686.66;12254438;19;20330;-89
2023/05/24 10:04:41;;;;;;;;;;;17.70;40.70;;;16.55;43.26;101712.69;12254885;19;19931;-89
2023/05/24 10:08:43;;;;;;;;;;;17.70;40.70;;;16.54;43.10;101710.97;12254998;19;20318;-88
2023/05/24 10:12:45;;;;;;;;;;;17.70;40.60;;;16.49;43.13;101704.31;12254459;19;19950;-89
2023/05/24 10:16:47;;;;;;;;;;;17.70;40.60;;;16.55;42.90;101717.09;12251552;19;19939;-89
2023/05/24 10:20:49;;;;;;;;;;;17.70;40.50;;;16.54;43.20;101716.25;12253387;19;19946;-88
2023/05/24 10:24:57;;;;;;;;;;;17.70;40.60;;;16.58;43.19;101715.13;12251467;19;20420;-88
2023/05/24 10:29:06;;;;;;;;;;;17.70;40.60;;;16.59;43.04;101714.16;12254255;19;19910;-89
2023/05/24 10:33:11;;;;;;;;;;;17.80;40.60;;;16.65;43.01;101720.81;12254438;19;19911;-88
2023/05/24 10:37:13;;;;;;;;;;;17.80;40.60;;;16.43;43.12;101673.06;12249389;19;19984;-89
2023/05/24 10:41:16;;;;;;;;;;;17.90;40.70;;;16.75;43.02;101723.72;12253170;19;19919;-88
2023/05/24 10:45:24;;;;;;;;;;;17.90;40.70;;;16.79;43.16;101731.34;12249253;19;20373;-89
2023/05/24 10:49:25;;;;;;;;;;;17.90;40.70;;;16.80;43.13;101730.41;12253398;19;19923;-86
2023/05/24 10:53:27;;;;;;;;;;;17.90;40.60;;;16.80;42.95;101714.59;12260990;19;19921;-84
2023/05/24 10:57:32;;;;;;;;;;;18.00;40.70;;;16.94;43.09;101726.03;12262927;19;19919;-85
2023/05/24 11:01:34;;;;;;;;;;;18.00;40.60;;;16.98;43.01;101722.22;12259637;19;19936;-84
2023/05/24 11:05:46;;;;;;;;;;;18.10;40.60;;;17.12;43.17;101731.84;12256688;19;20352;-84
2023/05/24 11:09:56;;;;;;;;;;;18.20;40.60;;;17.12;43.18;101716.91;12261866;19;19918;-85
2023/05/24 11:14:00;;;;;;;;;;;18.30;40.70;;;17.23;43.29;101724.94;12258681;19;19922;-84
2023/05/24 11:18:07;;;;;;;;;;;18.40;40.20;;;17.37;43.20;101737.19;12260737;19;19922;-84
2023/05/24 11:22:12;;;;;;;;;;;18.50;40.40;;;17.39;43.11;101729.16;12258743;19;19938;-84
2023/05/24 11:26:13;;;;;;;;;;;18.60;40.20;;;17.43;42.87;101717.44;12257886;19;19915;-84
2023/05/24 11:30:16;;;;;;;;;;;18.60;40.30;;;17.38;42.93;101703.72;12260699;19;20127;-84
2023/05/24 11:34:19;;;;;;;;;;;18.70;40.00;;;17.51;42.85;101720.41;12259570;19;19919;-85
2023/05/24 11:38:21;;;;;;;;;;;18.70;40.00;;;17.53;42.93;101723.81;12261840;19;19941;-85
2023/05/24 11:42:22;;;;;;;;;;;18.70;40.00;;;17.47;42.76;101714.50;12256469;19;20347;-83
2023/05/24 11:46:25;;;;;;;;;;;18.70;40.20;;;17.44;42.75;101695.34;12256286;19;19917;-84
2023/05/24 11:50:26;;;;;;;;;;;18.80;40.30;;;17.67;42.77;101728.13;12243330;19;19919;-83
2023/05/24 11:54:28;;;;;;;;;;;18.80;40.30;;;17.79;42.82;101731.75;12244699;19;19919;-84
2023/05/24 11:58:47;;;;;;;;;;;18.90;40.20;;;17.80;42.82;101725.53;12253027;19;19930;-83
2023/05/24 12:02:48;;;;;;;;;;;19.00;40.10;;;17.80;42.76;101725.53;12250956;19;19915;-83
2023/05/24 12:06:50;;;;;;;;;;;19.00;40.20;;;17.90;42.71;101729.19;12246580;19;19941;-83
2023/05/24 12:10:51;;;;;;;;;;;19.10;40.10;;;17.87;42.56;101722.31;12249755;19;20362;-83
2023/05/24 12:14:54;;;;;;;;;;;19.10;40.10;;;17.75;42.95;101698.53;12248568;19;19934;-84
2023/05/24 12:18:56;;;;;;;;;;;19.20;40.20;;;17.99;42.70;101736.50;12251128;19;19915;-83
2023/05/24 12:22:59;;;;;;;;;;;19.20;40.10;;;18.01;42.63;101731.06;12249352;19;19925;-83
2023/05/24 12:27:05;;;;;;;;;;;19.20;40.10;;;18.06;42.60;101735.09;12249231;19;20290;-84
2023/05/24 12:31:07;;;;;;;;;;;19.30;40.10;;;18.08;42.65;101719.97;12251461;19;19923;-84
2023/05/24 12:35:10;;;;;;;;;;;19.30;40.10;;;18.06;42.64;101711.28;12249215;19;19911;-83
2023/05/24 12:39:30;;;;;;;;;;;19.30;40.10;;;18.19;42.67;101728.94;12247044;19;19911;-84
2023/05/24 12:43:32;;;;;;;;;;;19.40;40.00;;;18.25;42.65;101726.69;12252909;19;19927;-83
2023/05/24 12:47:33;;;;;;;;;;;19.50;39.70;;;18.26;42.70;101730.19;12244517;19;20356;-84
2023/05/24 12:51:35;;;;;;;;;;;19.50;40.00;;;18.24;42.67;101716.25;12253491;19;19926;-84
2023/05/24 12:55:38;;;;;;;;;;;19.50;39.80;;;18.34;42.59;101727.84;12257826;19;19926;-82
2023/05/24 12:59:40;;;;;;;;;;;19.60;40.00;;;18.44;42.62;101734.13;12262717;19;19933;-83
2023/05/24 13:03:42;;;;;;;;;;;19.60;39.90;;;18.46;42.77;101729.59;12262788;19;19918;-83
2023/05/24 13:07:44;;;;;;;;;;;19.70;39.90;;;18.53;42.39;101741.44;12263020;19;19915;-83
2023/05/24 13:11:46;;;;;;;;;;;19.70;39.90;;;18.53;42.62;101743.22;12262517;19;19950;-83
2023/05/24 13:15:47;;;;;;;;;;;19.70;39.90;;;18.50;42.52;101732.88;12259151;19;19940;-82
2023/05/24 13:19:49;;;;;;;;;;;19.70;39.90;;;18.57;42.65;101734.94;12259454;19;19970;-83
2023/05/24 13:23:50;;;;;;;;;;;19.70;39.80;;;18.53;42.34;101722.06;12260711;19;19933;-83
2023/05/24 13:27:52;;;;;;;;;;;19.70;39.90;;;18.59;42.65;101724.25;12258966;19;20326;-83
2023/05/24 13:31:55;;;;;;;;;;;19.80;39.90;;;18.76;42.48;101726.53;12260819;19;19936;-84
2023/05/24 13:35:57;;;;;;;;;;;19.90;39.80;;;18.77;42.63;101724.75;12256971;19;19922;-83
2023/05/24 13:39:59;;;;;;;;;;;20.00;39.70;;;18.81;42.62;101712.13;12256339;19;19937;-83
2023/05/24 13:44:00;;;;;;;;;;;20.00;39.80;;;18.96;42.34;101722.44;12258406;19;19914;-82
2023/05/24 13:48:04;;;;;;;;;;;20.10;40.00;;;19.09;42.55;101726.78;12257316;19;19927;-83
2023/05/24 13:52:06;;;;;;;;;;;20.20;39.60;;;19.18;42.59;101737.53;12259971;19;19918;-82
2023/05/24 13:56:08;;;;;;;;;;;20.30;39.70;;;19.22;42.45;101719.59;12256207;19;19923;-82
2023/05/24 14:00:11;;;;;;;;;;;20.40;39.60;;;19.37;42.31;101729.03;12251556;19;19923;-84
2023/05/24 14:04:12;;;;;;;;;;;20.50;39.60;;;19.43;42.29;101723.25;12253368;19;20011;-84
2023/05/24 14:08:14;;;;;;;;;;;20.60;39.30;;;19.44;42.31;101724.97;12257718;19;19922;-84
2023/05/24 14:12:15;;;;;;;;;;;20.60;39.60;;;19.41;42.14;101719.03;12255922;19;19922;-84
2023/05/24 14:16:17;;;;;;;;;;;20.70;39.50;;;19.52;42.42;101723.50;12253473;19;20330;-85
2023/05/24 14:20:18;;;;;;;;;;;20.70;39.60;;;19.67;42.17;101733.81;12252974;19;19918;-84
2023/05/24 14:24:20;;;;;;;;;;;20.70;39.30;;;19.54;42.35;101693.28;12254609;19;20320;-83
2023/05/24 14:28:22;;;;;;;;;;;20.90;39.20;;;19.77;42.17;101722.50;12255881;19;20357;-83
2023/05/24 14:32:23;;;;;;;;;;;20.90;39.40;;;19.86;41.91;101735.88;12256560;19;19919;-84
2023/05/24 14:36:25;;;;;;;;;;;20.90;38.60;;;19.82;42.16;101723.84;12251740;19;20278;-84
2023/05/24 14:40:27;;;;;;;;;;;21.00;39.30;;;19.69;41.98;101688.66;12254327;19;19934;-83
2023/05/24 14:44:28;;;;;;;;;;;21.00;39.20;;;20.01;42.03;101727.66;12252715;19;19935;-83
2023/05/24 14:48:30;;;;;;;;;;;21.10;39.40;;;20.06;41.89;101729.00;12257934;19;19922;-83
2023/05/24 14:52:31;;;;;;;;;;;21.20;39.30;;;20.08;41.84;101715.59;12258053;19;19915;-83
2023/05/24 14:56:33;;;;;;;;;;;21.20;39.20;;;20.11;42.16;101697.63;12252395;19;19923;-83
2023/05/24 15:00:35;;;;;;;;;;;21.20;38.90;;;20.14;42.12;101715.09;12258265;19;19933;-85
2023/05/24 15:04:37;;;;;;;;;;;21.30;39.00;;;20.21;42.14;101715.47;12256106;19;19921;-84
2023/05/24 15:08:39;;;;;;;;;;;21.30;39.00;;;20.12;41.68;101709.13;12262154;19;19919;-84
2023/05/24 15:12:41;;;;;;;;;;;21.30;39.10;;;20.26;41.84;101715.97;12260689;19;19926;-84
2023/05/24 15:16:42;;;;;;;;;;;21.40;38.80;;;20.25;41.91;101720.44;12257737;19;20231;-84
2023/05/24 15:20:44;;;;;;;;;;;21.40;39.30;;;20.16;41.63;101713.19;12260034;19;19967;-85
2023/05/24 15:24:46;;;;;;;;;;;21.40;39.00;;;20.16;41.58;101707.88;12262403;19;19919;-85
2023/05/24 15:28:47;;;;;;;;;;;21.40;38.80;;;20.17;41.65;101709.59;12261520;19;19947;-85
2023/05/24 15:32:49;;;;;;;;;;;21.30;39.00;;;19.91;41.64;101665.75;12263248;19;20052;-84
2023/05/24 15:36:51;;;;;;;;;;;21.30;38.80;;;20.27;41.37;101718.47;12257402;19;19923;-84
2023/05/24 15:40:53;;;;;;;;;;;21.30;39.00;;;20.31;41.80;101717.28;12259938;19;20322;-84
2023/05/24 15:44:54;;;;;;;;;;;21.30;38.80;;;20.39;41.58;101729.06;12259170;19;19911;-85
2023/05/24 15:48:56;;;;;;;;;;;21.40;39.00;;;20.42;41.53;101723.53;12260052;19;20026;-84
2023/05/24 15:52:58;;;;;;;;;;;21.40;38.80;;;20.48;41.60;101717.72;12262109;19;19915;-85
2023/05/24 15:57:00;;;;;;;;;;;21.50;38.90;;;20.33;41.71;101688.81;12256820;19;19923;-84
2023/05/24 16:01:02;;;;;;;;;;;21.50;38.80;;;20.48;41.39;101713.25;12259411;19;19915;-84
2023/05/24 16:05:03;;;;;;;;;;;21.60;38.60;;;20.56;41.63;101720.63;12257622;19;19926;-85
2023/05/24 16:09:05;;;;;;;;;;;21.60;38.80;;;20.55;41.35;101716.28;12261830;19;20353;-85
2023/05/24 16:13:07;;;;;;;;;;;21.60;38.80;;;20.60;41.54;101730.00;12261840;19;19918;-84
2023/05/24 16:17:09;;;;;;;;;;;21.60;38.70;;;20.52;41.27;101714.69;12260464;19;19945;-85
2023/05/24 16:21:11;;;;;;;;;;;21.60;38.80;;;20.42;40.98;101711.09;12260227;19;19951;-85
2023/05/24 16:25:13;;;;;;;;;;;21.60;38.70;;;20.39;40.93;101711.34;12260338;19;19915;-85
2023/05/24 16:29:16;;;;;;;;;;;21.60;38.80;;;20.41;41.13;101711.22;12269935;19;19915;-84
2023/05/24 16:33:23;;;;;;;;;;;21.50;38.80;;;20.39;41.38;101702.53;12263201;19;20269;-85
2023/05/24 16:37:25;;;;;;;;;;;21.50;38.80;;;20.42;41.21;101707.59;12274718;19;19957;-85
2023/05/24 16:41:33;;;;;;;;;;;21.50;38.90;;;20.53;41.13;101729.66;12267258;19;19919;-84
2023/05/24 16:45:35;;;;;;;;;;;21.60;38.70;;;20.47;41.14;101724.00;12269799;19;19914;-84
2023/05/24 16:49:36;;;;;;;;;;;21.50;38.70;;;20.26;41.25;101698.22;12271843;19;19918;-85
2023/05/24 16:53:38;;;;;;;;;;;21.50;38.80;;;20.32;41.10;101716.28;12269831;19;19923;-85
2023/05/24 16:57:40;;;;;;;;;;;21.40;38.70;;;20.38;41.07;101724.72;12272169;19;19950;-84
2023/05/24 17:01:44;;;;;;;;;;;21.40;38.80;;;20.16;41.03;101691.97;12269570;19;19933;-85
2023/05/24 17:05:45;;;;;;;;;;;21.40;38.80;;;20.32;40.94;101718.94;12268573;19;19931;-84
2023/05/24 17:09:49;;;;;;;;;;;21.30;38.80;;;20.11;40.89;101694.16;12274167;19;20246;-84
2023/05/24 17:13:50;;;;;;;;;;;21.30;38.80;;;20.29;40.92;101726.31;12275456;19;20382;-83
2023/05/24 17:17:54;;;;;;;;;;;21.30;38.80;;;20.25;40.86;101722.22;12261562;19;20543;-83
2023/05/24 17:21:56;;;;;;;;;;;21.20;38.80;;;20.24;40.81;101725.84;12248175;19;19924;-83
2023/05/24 17:25:58;;;;;;;;;;;21.20;38.80;;;20.04;40.80;101700.94;12243079;19;19915;-83
2023/05/24 17:29:59;;;;;;;;;;;21.20;38.80;;;20.10;40.54;101729.59;12255518;19;19910;-84
2023/05/24 17:34:01;;;;;;;;;;;21.20;38.90;;;20.03;40.92;101729.22;12255119;19;20330;-84
2023/05/24 17:38:03;;;;;;;;;;;21.10;38.90;;;20.07;41.18;101735.16;12255235;19;19928;-83
2023/05/24 17:42:05;;;;;;;;;;;21.10;38.90;;;20.12;40.84;101748.88;12251182;19;19922;-84
2023/05/24 17:46:07;;;;;;;;;;;21.00;38.90;;;19.99;40.99;101733.09;12253337;19;19910;-83
2023/05/24 17:50:09;;;;;;;;;;;21.10;39.00;;;19.93;40.72;101732.72;12255165;19;19926;-83
2023/05/24 17:54:10;;;;;;;;;;;21.00;39.00;;;20.03;40.63;101749.59;12256534;19;19919;-83
2023/05/24 17:58:12;;;;;;;;;;;21.00;39.00;;;20.01;40.51;101754.16;12260605;19;19926;-84
2023/05/24 18:02:13;;;;;;;;;;;20.90;39.00;;;19.95;40.83;101762.63;12257099;19;19922;-83
2023/05/24 18:06:15;;;;;;;;;;;20.90;39.00;;;19.87;40.68;101756.13;12260067;19;20346;-84
2023/05/24 18:10:16;;;;;;;;;;;20.80;39.00;;;19.66;40.65;101723.34;12265383;19;19919;-83